Time;durP1;ratioP1;P1;durP2;ratioP2;P2;SDS_P1;SDS_P2;PMS_P1;PMS_P2;Temp;Humidity;BMP_temperature;BMP_pressure;BME280_temperature;BME280_humidity;BME280_pressure;Samples;Min_cycle;Max_cycle;Signal;HPM_P1;HPM_P2
2023/09/13 00:00:48;;;;;;;27.38;15.60;;;21.90;89.30;;;;;;5031091;28;20082;-66
2023/09/13 00:03:52;;;;;;;21.58;15.52;;;22.00;89.40;;;;;;5031300;28;20056;-66
2023/09/13 00:06:56;;;;;;;27.60;15.38;;;22.00;89.10;;;;;;5030761;28;20048;-66
2023/09/13 00:10:00;;;;;;;21.35;15.90;;;21.90;88.80;;;;;;5031871;28;20053;-65
2023/09/13 00:13:04;;;;;;;22.08;15.57;;;21.90;88.70;;;;;;5031356;28;20048;-65
2023/09/13 00:16:08;;;;;;;26.52;15.80;;;21.90;89.50;;;;;;5031087;28;20049;-66
2023/09/13 00:19:12;;;;;;;26.15;15.73;;;21.90;88.50;;;;;;5031342;28;20663;-66
2023/09/13 00:22:17;;;;;;;21.02;14.63;;;21.90;88.30;;;;;;5031290;28;20429;-66
2023/09/13 00:25:20;;;;;;;23.58;15.82;;;21.80;88.40;;;;;;5031296;28;20048;-66
2023/09/13 00:28:24;;;;;;;26.80;14.32;;;21.60;88.80;;;;;;5031168;28;20405;-66
2023/09/13 00:31:28;;;;;;;18.55;14.27;;;21.40;88.60;;;;;;5031158;28;20053;-66
2023/09/13 00:34:32;;;;;;;25.95;13.95;;;21.50;88.70;;;;;;5030915;28;20052;-66
2023/09/13 00:37:36;;;;;;;24.73;14.52;;;21.60;87.70;;;;;;5031023;28;20405;-66
2023/09/13 00:40:40;;;;;;;23.08;14.88;;;21.60;88.10;;;;;;5030787;28;20044;-66
2023/09/13 00:43:44;;;;;;;21.60;14.25;;;21.60;87.90;;;;;;5030651;28;20049;-66
2023/09/13 00:46:48;;;;;;;17.88;13.45;;;21.50;88.20;;;;;;5030104;28;20072;-66
2023/09/13 00:49:52;;;;;;;25.63;14.23;;;21.50;87.00;;;;;;5030092;28;20044;-67
2023/09/13 00:52:57;;;;;;;20.33;13.95;;;21.50;87.40;;;;;;5030970;28;20053;-65
2023/09/13 00:56:02;;;;;;;19.80;14.43;;;21.60;87.50;;;;;;5029720;28;20048;-65
2023/09/13 00:59:09;;;;;;;20.85;13.77;;;21.50;86.80;;;;;;5030696;28;20540;-67
2023/09/13 01:02:13;;;;;;;18.00;13.07;;;21.40;87.50;;;;;;5029875;28;20059;-65
2023/09/13 01:05:17;;;;;;;20.13;12.88;;;21.40;86.90;;;;;;5030569;28;20044;-66
2023/09/13 01:08:22;;;;;;;19.55;12.55;;;21.50;85.90;;;;;;5029897;28;20041;-65
2023/09/13 01:11:27;;;;;;;20.25;12.93;;;21.50;85.00;;;;;;5029605;28;20396;-65
2023/09/13 01:14:32;;;;;;;22.17;11.88;;;21.50;85.70;;;;;;5033435;28;20036;-65
2023/09/13 01:17:41;;;;;;;16.77;11.23;;;21.50;85.10;;;;;;5034387;28;20045;-65
2023/09/13 01:21:24;;;;;;;16.90;11.38;;;21.40;84.80;;;;;;5034247;28;20405;-65
2023/09/13 01:25:06;;;;;;;15.35;11.77;;;21.10;85.10;;;;;;5033400;28;20068;-65
2023/09/13 01:28:35;;;;;;;17.98;11.40;;;21.30;84.90;;;;;;5012089;28;20065;-65
2023/09/13 01:31:39;;;;;;;18.02;10.85;;;21.10;85.40;;;;;;5015301;28;20044;-65
2023/09/13 01:34:43;;;;;;;16.48;11.73;;;21.10;85.20;;;;;;5034149;28;20052;-65
2023/09/13 01:37:47;;;;;;;13.75;10.40;;;21.00;85.30;;;;;;5034144;28;20397;-65
2023/09/13 01:40:56;;;;;;;13.10;10.27;;;21.10;85.00;;;;;;5033945;28;20044;-65
2023/09/13 01:44:00;;;;;;;15.38;11.25;;;21.20;84.30;;;;;;5032946;28;20052;-65
2023/09/13 01:47:08;;;;;;;16.65;11.40;;;21.30;84.30;;;;;;5033871;28;20648;-65
2023/09/13 01:50:14;;;;;;;13.82;10.10;;;21.20;84.20;;;;;;5033097;28;20064;-65
2023/09/13 01:53:17;;;;;;;14.05;10.85;;;21.40;84.20;;;;;;5034096;28;20052;-65
2023/09/13 01:56:22;;;;;;;16.70;10.95;;;21.20;84.00;;;;;;5033921;28;20092;-66
2023/09/13 01:59:26;;;;;;;15.45;11.38;;;21.00;83.70;;;;;;5032864;28;20630;-65
2023/09/13 02:02:30;;;;;;;16.23;11.18;;;21.00;84.60;;;;;;5033525;28;20048;-65
2023/09/13 02:05:33;;;;;;;13.77;10.48;;;21.00;84.30;;;;;;5033253;28;20048;-65
2023/09/13 02:08:39;;;;;;;16.23;11.35;;;21.00;84.40;;;;;;5032762;28;20496;-65
2023/09/13 02:11:46;;;;;;;15.57;10.65;;;21.00;84.60;;;;;;5033478;28;20045;-65
2023/09/13 02:14:50;;;;;;;20.45;11.52;;;20.90;84.30;;;;;;5033249;28;20105;-65
2023/09/13 02:17:54;;;;;;;18.20;11.60;;;20.60;85.10;;;;;;5055241;28;20532;-65
2023/09/13 02:20:58;;;;;;;16.98;11.40;;;20.60;86.10;;;;;;5033205;28;20500;-65
2023/09/13 02:24:02;;;;;;;14.73;10.98;;;20.60;86.90;;;;;;5032699;28;20072;-65
2023/09/13 02:27:06;;;;;;;17.17;11.18;;;20.60;85.70;;;;;;5033447;28;20531;-65
2023/09/13 02:30:13;;;;;;;16.00;10.32;;;20.50;85.30;;;;;;5032975;28;20040;-65
2023/09/13 02:33:17;;;;;;;15.00;10.40;;;20.40;85.10;;;;;;5032954;28;20662;-65
2023/09/13 02:36:22;;;;;;;11.98;10.18;;;20.40;85.50;;;;;;5032810;28;20108;-65
2023/09/13 02:39:30;;;;;;;22.73;10.30;;;20.50;85.50;;;;;;5032184;28;20036;-65
2023/09/13 02:42:34;;;;;;;22.83;11.57;;;20.50;85.30;;;;;;5032851;28;20044;-65
2023/09/13 02:45:38;;;;;;;12.35;10.20;;;21.20;85.90;;;;;;5032654;28;20044;-65
2023/09/13 02:48:42;;;;;;;15.35;10.27;;;20.40;86.00;;;;;;5054820;28;20040;-66
2023/09/13 02:51:47;;;;;;;17.90;11.02;;;20.30;87.00;;;;;;5032882;28;20053;-65
2023/09/13 02:54:51;;;;;;;13.68;10.30;;;20.50;85.10;;;;;;5032838;28;20070;-65
2023/09/13 02:57:55;;;;;;;13.50;10.30;;;20.40;84.40;;;;;;5031648;28;20040;-65
2023/09/13 03:01:05;;;;;;;11.48;10.10;;;20.50;85.00;;;;;;5031655;28;20044;-65
2023/09/13 03:04:09;;;;;;;15.30;10.65;;;20.70;84.40;;;;;;5031506;28;20417;-65
2023/09/13 03:07:16;;;;;;;14.65;11.05;;;20.60;85.30;;;;;;5032707;28;20052;-65
2023/09/13 03:10:20;;;;;;;16.70;11.15;;;20.70;84.80;;;;;;5031504;28;20049;-65
2023/09/13 03:13:24;;;;;;;13.85;10.95;;;20.70;84.80;;;;;;5031802;28;20052;-65
2023/09/13 03:16:28;;;;;;;15.80;11.00;;;20.60;84.80;;;;;;5031384;28;20052;-65
2023/09/13 03:19:32;;;;;;;16.05;11.73;;;20.60;85.30;;;;;;5032103;28;20045;-65
2023/09/13 03:22:36;;;;;;;15.45;10.68;;;20.20;86.10;;;;;;5032619;28;20064;-65
2023/09/13 03:25:40;;;;;;;20.42;11.40;;;21.40;87.00;;;;;;5031905;28;20044;-65
2023/09/13 03:29:04;;;;;;;20.65;12.48;;;20.20;87.10;;;;;;5031097;28;20053;-65
2023/09/13 03:32:10;;;;;;;20.63;12.07;;;21.70;88.30;;;;;;5031231;28;20053;-65
2023/09/13 03:35:15;;;;;;;14.52;11.80;;;20.00;87.40;;;;;;5019897;28;20060;-65
2023/09/13 03:38:19;;;;;;;18.23;11.85;;;20.00;87.90;;;;;;5053266;28;20485;-65
2023/09/13 03:41:26;;;;;;;14.88;12.35;;;19.90;88.20;;;;;;5030955;28;20060;-65
2023/09/13 03:44:31;;;;;;;18.58;12.35;;;19.90;88.00;;;;;;5030953;28;20409;-65
2023/09/13 03:47:35;;;;;;;20.90;12.48;;;19.90;88.60;;;;;;5030690;28;20048;-65
2023/09/13 03:50:39;;;;;;;18.15;12.80;;;19.80;89.00;;;;;;5030840;28;20444;-65
2023/09/13 03:53:45;;;;;;;20.98;12.20;;;19.80;89.10;;;;;;5030915;28;20052;-65
2023/09/13 03:56:50;;;;;;;16.90;11.75;;;19.80;89.20;;;;;;5031697;28;20397;-65
2023/09/13 03:59:54;;;;;;;20.75;12.15;;;19.90;89.40;;;;;;5031682;28;20048;-65
2023/09/13 04:02:58;;;;;;;18.33;13.00;;;20.00;88.70;;;;;;5030679;28;20065;-65
2023/09/13 04:06:03;;;;;;;20.02;12.27;;;20.00;88.60;;;;;;5030832;28;20500;-65
2023/09/13 04:09:07;;;;;;;21.00;12.18;;;19.90;88.70;;;;;;5031402;28;20048;-65
2023/09/13 04:12:10;;;;;;;16.00;12.77;;;19.80;88.70;;;;;;5031414;28;20385;-65
2023/09/13 04:15:14;;;;;;;21.40;13.15;;;19.90;90.10;;;;;;5030173;28;20551;-65
2023/09/13 04:18:18;;;;;;;21.52;14.02;;;19.80;89.60;;;;;;5053245;28;20496;-65
2023/09/13 04:21:22;;;;;;;22.02;13.75;;;19.80;90.10;;;;;;5031206;28;20057;-65
2023/09/13 04:24:26;;;;;;;17.52;13.73;;;19.90;89.70;;;;;;5030009;28;20064;-65
2023/09/13 04:27:30;;;;;;;17.35;13.90;;;20.20;90.00;;;;;;5031007;28;20101;-65
2023/09/13 04:30:34;;;;;;;23.52;14.15;;;19.70;90.10;;;;;;5030940;28;20508;-65
2023/09/13 04:33:46;;;;;;;25.27;13.95;;;19.60;90.40;;;;;;5053085;28;20104;-65
2023/09/13 04:36:50;;;;;;;19.70;13.77;;;19.60;90.30;;;;;;5030020;28;20048;-65
2023/09/13 04:39:54;;;;;;;21.73;13.38;;;19.70;90.00;;;;;;5029973;28;20087;-65
2023/09/13 04:43:05;;;;;;;27.98;13.57;;;19.70;90.10;;;;;;5053105;28;20053;-66
2023/09/13 04:46:09;;;;;;;28.67;14.67;;;19.70;90.10;;;;;;5030102;28;20397;-66
2023/09/13 04:49:14;;;;;;;29.20;13.63;;;19.70;90.00;;;;;;5035872;28;20037;-66
2023/09/13 04:52:17;;;;;;;22.73;11.93;;;19.60;90.20;;;;;;5037395;28;20044;-66
2023/09/13 04:55:23;;;;;;;16.20;11.52;;;19.60;90.00;;;;;;5036741;28;20058;-66
2023/09/13 04:58:28;;;;;;;25.00;11.82;;;19.80;87.40;;;;;;5036255;28;20206;-66
2023/09/13 05:01:31;;;;;;;30.42;11.23;;;19.80;88.20;;;;;;5037105;28;20084;-66
2023/09/13 05:04:36;;;;;;;24.70;11.25;;;21.00;87.30;;;;;;5037026;28;20061;-66
2023/09/13 05:07:40;;;;;;;22.95;10.35;;;21.10;87.10;;;;;;5037289;28;20044;-66
2023/09/13 05:10:45;;;;;;;30.00;11.68;;;20.00;86.30;;;;;;5037180;28;20080;-66
2023/09/13 05:13:50;;;;;;;17.70;11.27;;;20.00;86.30;;;;;;5037162;28;20056;-66
2023/09/13 05:16:53;;;;;;;17.75;11.20;;;20.20;86.40;;;;;;5037191;28;20051;-65
2023/09/13 05:19:58;;;;;;;34.00;10.60;;;20.50;86.40;;;;;;5036969;28;20048;-64
2023/09/13 05:23:03;;;;;;;18.85;11.02;;;20.90;85.10;;;;;;5036886;28;20060;-64
2023/09/13 05:26:07;;;;;;;27.38;10.77;;;21.70;83.10;;;;;;5036733;28;20056;-64
2023/09/13 05:29:10;;;;;;;33.58;10.60;;;22.70;80.80;;;;;;5036424;28;20040;-64
2023/09/13 05:32:17;;;;;;;32.00;11.48;;;23.50;78.90;;;;;;5035790;28;20044;-65
2023/09/13 05:35:22;;;;;;;44.95;12.77;;;24.10;77.20;;;;;;5036869;28;20048;-64
2023/09/13 05:38:25;;;;;;;31.25;11.13;;;24.60;76.00;;;;;;5035877;28;20048;-65
2023/09/13 05:41:30;;;;;;;22.30;10.57;;;24.90;75.10;;;;;;5036764;28;20044;-64
2023/09/13 05:44:33;;;;;;;27.33;11.35;;;24.80;74.30;;;;;;5036314;28;20531;-65
2023/09/13 05:47:37;;;;;;;38.97;13.07;;;24.70;75.50;;;;;;5036687;28;20394;-65
2023/09/13 05:50:41;;;;;;;41.35;13.18;;;24.90;74.40;;;;;;5036364;28;20528;-65
2023/09/13 05:53:46;;;;;;;31.08;10.80;;;25.20;73.60;;;;;;5036537;28;20044;-64
2023/09/13 05:56:55;;;;;;;42.03;12.38;;;25.20;74.30;;;;;;5036446;28;20044;-65
2023/09/13 05:59:59;;;;;;;40.35;11.88;;;25.60;73.20;;;;;;5033806;28;20040;-65
2023/09/13 06:03:03;;;;;;;32.25;11.65;;;25.90;73.00;;;;;;5033404;28;20638;-64
2023/09/13 06:06:11;;;;;;;33.47;12.38;;;25.90;73.40;;;;;;5033318;28;20076;-64
2023/09/13 06:09:15;;;;;;;35.70;12.25;;;26.10;73.00;;;;;;5032937;28;20140;-65
2023/09/13 06:12:20;;;;;;;35.47;12.90;;;26.20;72.50;;;;;;5033147;28;20068;-66
2023/09/13 06:15:24;;;;;;;37.22;13.75;;;26.10;73.10;;;;;;5032701;28;20064;-68
2023/09/13 06:18:28;;;;;;;27.73;13.35;;;26.00;73.30;;;;;;5032424;28;20052;-67
2023/09/13 06:21:32;;;;;;;33.92;13.32;;;26.10;73.30;;;;;;5032319;28;20703;-68
2023/09/13 06:24:36;;;;;;;37.38;15.07;;;26.30;73.40;;;;;;5032567;28;20064;-68
2023/09/13 06:27:40;;;;;;;37.28;16.15;;;26.30;74.10;;;;;;5032768;28;20044;-66
2023/09/13 06:30:44;;;;;;;34.97;17.08;;;26.30;74.20;;;;;;5032817;28;20416;-66
2023/09/13 06:33:48;;;;;;;46.92;16.27;;;26.10;75.00;;;;;;5032702;28;20504;-67
2023/09/13 06:36:53;;;;;;;36.28;16.88;;;25.90;76.10;;;;;;5032812;28;20465;-67
2023/09/13 06:39:58;;;;;;;31.80;17.02;;;25.70;76.20;;;;;;5032525;28;20053;-67
2023/09/13 06:43:02;;;;;;;37.33;17.02;;;25.80;76.70;;;;;;5032394;28;20045;-68
2023/09/13 06:46:06;;;;;;;29.80;16.23;;;26.00;76.50;;;;;;5032840;28;20155;-67
2023/09/13 06:49:10;;;;;;;64.03;18.65;;;26.10;76.40;;;;;;5032209;28;20045;-66
2023/09/13 06:52:14;;;;;;;56.50;19.38;;;26.00;76.40;;;;;;5032251;28;20049;-66
2023/09/13 06:55:17;;;;;;;74.82;25.63;;;26.10;76.90;;;;;;5032473;28;20052;-66
2023/09/13 06:58:22;;;;;;;50.65;27.98;;;26.30;75.80;;;;;;5032209;28;20052;-67
2023/09/13 07:01:25;;;;;;;49.50;24.23;;;26.40;75.30;;;;;;5032341;28;20069;-66
2023/09/13 07:04:30;;;;;;;58.70;29.70;;;26.60;74.40;;;;;;5032060;28;20056;-66
2023/09/13 07:07:34;;;;;;;53.70;30.80;;;26.70;74.30;;;;;;5032118;28;20045;-65
2023/09/13 07:10:38;;;;;;;62.13;34.22;;;26.90;74.60;;;;;;5031771;28;20048;-66
2023/09/13 07:13:42;;;;;;;82.82;51.10;;;26.80;75.30;;;;;;5032287;28;20041;-65
2023/09/13 07:16:46;;;;;;;66.15;39.40;;;26.60;75.40;;;;;;5031964;28;20048;-65
2023/09/13 07:19:49;;;;;;;41.63;20.75;;;26.40;75.80;;;;;;5032058;28;20040;-66
2023/09/13 07:22:54;;;;;;;29.83;16.33;;;26.30;76.40;;;;;;5032466;28;20045;-66
2023/09/13 07:25:59;;;;;;;23.30;13.13;;;26.30;77.20;;;;;;5031951;28;20048;-64
2023/09/13 07:29:03;;;;;;;32.47;15.68;;;26.30;75.80;;;;;;5032081;28;20508;-65
2023/09/13 07:32:06;;;;;;;26.45;14.88;;;26.30;77.00;;;;;;5031719;28;20056;-66
2023/09/13 07:35:10;;;;;;;21.55;14.35;;;26.30;76.80;;;;;;5031985;28;20060;-65
2023/09/13 07:38:15;;;;;;;21.60;12.32;;;26.50;76.50;;;;;;5031789;28;20049;-67
2023/09/13 07:41:18;;;;;;;17.92;11.48;;;26.40;76.90;;;;;;5031966;28;20048;-68
2023/09/13 07:44:23;;;;;;;21.35;11.25;;;26.50;76.80;;;;;;5031612;28;20056;-66
2023/09/13 07:47:28;;;;;;;23.75;12.55;;;26.70;77.30;;;;;;5031093;28;20052;-66
2023/09/13 07:50:33;;;;;;;18.00;10.98;;;26.90;78.30;;;;;;5031346;28;20052;-66
2023/09/13 07:53:37;;;;;;;24.05;11.05;;;27.30;77.70;;;;;;5031394;28;20048;-67
2023/09/13 07:56:41;;;;;;;17.40;10.85;;;27.50;80.70;;;;;;5031498;28;20044;-67
2023/09/13 07:59:45;;;;;;;19.55;11.20;;;27.70;80.00;;;;;;5031385;28;20036;-67
2023/09/13 08:02:48;;;;;;;15.45;10.05;;;27.80;79.90;;;;;;5031129;28;20400;-66
2023/09/13 08:05:53;;;;;;;26.30;12.00;;;28.00;80.00;;;;;;5030912;28;20052;-65
2023/09/13 08:08:57;;;;;;;17.98;10.68;;;28.00;80.20;;;;;;5031246;28;20053;-66
2023/09/13 08:12:03;;;;;;;13.35;10.55;;;27.90;82.20;;;;;;5030976;28;20053;-66
2023/09/13 08:15:07;;;;;;;15.20;10.60;;;27.70;83.60;;;;;;5031305;28;20048;-66
2023/09/13 08:18:11;;;;;;;13.00;9.10;;;27.80;83.70;;;;;;5031131;28;20048;-67
2023/09/13 08:21:15;;;;;;;17.92;10.65;;;27.80;84.20;;;;;;5030947;28;20041;-66
2023/09/13 08:24:19;;;;;;;16.25;10.80;;;27.90;83.70;;;;;;5030193;28;20056;-66
2023/09/13 08:27:23;;;;;;;17.48;10.88;;;27.90;83.50;;;;;;5030747;28;20044;-67
2023/09/13 08:30:27;;;;;;;17.38;11.23;;;28.00;83.50;;;;;;5031064;28;20060;-66
2023/09/13 08:33:31;;;;;;;11.55;10.25;;;27.90;83.50;;;;;;5030417;28;20072;-67
2023/09/13 08:36:35;;;;;;;13.25;10.15;;;28.00;83.70;;;;;;5030822;28;20060;-67
2023/09/13 08:39:39;;;;;;;15.30;9.07;;;28.10;83.10;;;;;;5030523;28;20037;-67
2023/09/13 08:42:44;;;;;;;10.63;8.68;;;28.10;83.10;;;;;;5030896;28;20041;-67
2023/09/13 08:45:49;;;;;;;12.80;11.18;;;28.30;83.00;;;;;;5030387;28;20048;-67
2023/09/13 08:48:55;;;;;;;20.17;12.30;;;28.20;82.70;;;;;;5030657;28;20044;-67
2023/09/13 08:52:00;;;;;;;15.65;12.52;;;28.00;83.50;;;;;;5030832;28;20049;-67
2023/09/13 08:55:06;;;;;;;20.75;12.38;;;27.90;83.60;;;;;;5029865;28;20045;-67
2023/09/13 08:58:10;;;;;;;19.65;12.55;;;27.90;84.00;;;;;;5030463;28;20064;-67
2023/09/13 09:01:17;;;;;;;26.02;14.18;;;27.90;84.50;;;;;;5030752;28;20504;-67
2023/09/13 09:04:21;;;;;;;13.40;10.20;;;27.80;85.00;;;;;;5030384;28;20520;-65
2023/09/13 09:07:26;;;;;;;22.35;12.52;;;27.90;84.50;;;;;;5030319;28;20045;-65
2023/09/13 09:10:35;;;;;;;13.30;9.40;;;28.00;84.20;;;;;;5030405;28;20053;-65
2023/09/13 09:13:40;;;;;;;18.75;11.73;;;28.20;83.80;;;;;;5030575;28;20048;-65
2023/09/13 09:16:50;;;;;;;23.17;13.57;;;28.40;83.10;;;;;;5030234;28;20128;-65
2023/09/13 09:19:54;;;;;;;26.98;13.05;;;28.50;82.70;;;;;;5030153;28;20048;-64
2023/09/13 09:22:58;;;;;;;10.93;9.77;;;28.30;83.60;;;;;;5029357;28;20056;-65
2023/09/13 09:26:03;;;;;;;11.45;9.18;;;28.40;84.10;;;;;;5030177;28;20052;-66
2023/09/13 09:29:16;;;;;;;10.52;7.90;;;28.60;82.80;;;;;;5029478;28;20064;-66
2023/09/13 09:32:21;;;;;;;15.82;10.75;;;28.90;82.20;;;;;;5029912;28;20053;-66
2023/09/13 09:35:25;;;;;;;17.67;11.55;;;29.10;81.00;;;;;;5032342;28;20147;-64
2023/09/13 09:38:30;;;;;;;16.27;10.20;;;29.30;80.40;;;;;;5033914;28;20052;-65
2023/09/13 09:41:35;;;;;;;15.68;10.45;;;29.40;80.10;;;;;;5033152;28;20044;-65
2023/09/13 09:44:39;;;;;;;15.80;10.23;;;29.60;79.60;;;;;;5033779;28;20523;-65
2023/09/13 09:47:44;;;;;;;14.25;11.63;;;29.60;78.90;;;;;;5033646;28;20508;-65
2023/09/13 09:50:53;;;;;;;13.85;9.73;;;29.70;78.80;;;;;;5033580;28;20048;-64
2023/09/13 09:53:57;;;;;;;17.23;10.60;;;29.70;79.00;;;;;;5033787;28;20504;-65
2023/09/13 09:57:01;;;;;;;13.65;10.10;;;29.80;78.40;;;;;;5033223;28;20064;-65
2023/09/13 10:00:07;;;;;;;12.15;10.00;;;29.80;78.40;;;;;;5033757;28;20052;-64
2023/09/13 10:03:18;;;;;;;19.27;10.68;;;29.90;78.50;;;;;;5033583;28;20040;-65
2023/09/13 10:06:22;;;;;;;20.92;12.13;;;30.00;77.40;;;;;;5033283;28;20052;-65
2023/09/13 10:09:40;;;;;;;18.25;10.20;;;30.10;77.00;;;;;;5033583;28;20496;-65
2023/09/13 10:12:54;;;;;;;13.65;10.98;;;30.10;77.30;;;;;;5033148;28;20045;-64
2023/09/13 10:16:00;;;;;;;13.00;9.60;;;30.20;77.10;;;;;;5033520;28;20052;-66
2023/09/13 10:19:06;;;;;;;18.70;10.63;;;30.40;76.90;;;;;;5032969;28;20581;-64
2023/09/13 10:22:14;;;;;;;17.63;10.20;;;30.50;75.90;;;;;;5033305;28;20535;-65
2023/09/13 10:25:19;;;;;;;17.42;11.10;;;30.60;75.20;;;;;;5032903;28;20072;-66
2023/09/13 10:28:26;;;;;;;12.43;9.10;;;30.60;74.80;;;;;;5033203;28;20052;-65
2023/09/13 10:31:34;;;;;;;17.35;9.75;;;30.60;75.00;;;;;;5033232;28;20045;-64
2023/09/13 10:34:51;;;;;;;18.00;9.82;;;30.60;75.00;;;;;;5032732;28;20052;-64
2023/09/13 10:38:26;;;;;;;14.32;9.80;;;30.60;74.90;;;;;;5032686;28;20082;-66
2023/09/13 10:41:35;;;;;;;13.63;9.40;;;30.60;74.80;;;;;;5032988;28;20045;-66
2023/09/13 10:44:41;;;;;;;13.40;9.90;;;30.40;75.00;;;;;;5032735;28;20056;-66
2023/09/13 10:47:47;;;;;;;11.15;9.15;;;30.40;75.40;;;;;;5032577;28;20045;-66
2023/09/13 10:50:54;;;;;;;17.40;11.68;;;30.30;75.90;;;;;;5032790;28;20052;-65
2023/09/13 10:54:02;;;;;;;15.45;10.15;;;30.30;77.00;;;;;;5032867;28;20048;-65
2023/09/13 10:57:08;;;;;;;19.25;12.02;;;30.40;77.00;;;;;;5032649;28;20052;-66
2023/09/13 11:00:14;;;;;;;14.93;9.75;;;30.50;75.90;;;;;;5032285;28;20052;-65
2023/09/13 11:03:18;;;;;;;15.35;10.65;;;30.50;76.10;;;;;;5032628;28;20060;-65
2023/09/13 11:06:24;;;;;;;15.85;10.13;;;30.60;76.00;;;;;;5032115;28;20544;-65
2023/09/13 11:09:31;;;;;;;17.98;12.68;;;30.60;75.90;;;;;;5032407;28;20526;-65
2023/09/13 11:12:36;;;;;;;13.43;10.80;;;30.70;75.40;;;;;;5032205;28;20045;-65
2023/09/13 11:15:55;;;;;;;18.70;11.15;;;30.60;75.60;;;;;;5032555;28;20048;-65
2023/09/13 11:19:03;;;;;;;16.35;12.50;;;30.50;76.40;;;;;;5032245;28;20048;-65
2023/09/13 11:22:30;;;;;;;16.45;10.52;;;30.60;77.00;;;;;;5032282;28;20048;-65
2023/09/13 11:25:42;;;;;;;20.77;12.95;;;30.60;76.80;;;;;;5032037;28;20060;-65
2023/09/13 11:28:47;;;;;;;16.13;11.00;;;30.50;76.30;;;;;;5031985;28;20048;-65
2023/09/13 11:32:06;;;;;;;12.75;10.63;;;30.50;76.20;;;;;;5032224;28;20052;-64
2023/09/13 11:35:10;;;;;;;15.35;10.48;;;30.50;76.50;;;;;;5031880;28;20057;-65
2023/09/13 11:38:16;;;;;;;16.13;10.20;;;30.60;76.80;;;;;;5031482;28;20083;-64
2023/09/13 11:41:21;;;;;;;14.77;10.82;;;30.60;77.30;;;;;;5031722;28;20061;-65
2023/09/13 11:44:29;;;;;;;16.30;11.02;;;30.60;77.30;;;;;;5031631;28;20053;-64
2023/09/13 11:47:36;;;;;;;20.38;11.73;;;30.50;77.00;;;;;;5031363;28;20040;-64
2023/09/13 11:50:48;;;;;;;15.85;11.18;;;30.50;77.40;;;;;;5031704;28;20044;-64
2023/09/13 11:53:53;;;;;;;11.30;9.55;;;30.40;77.50;;;;;;5031559;28;20393;-64
2023/09/13 11:57:02;;;;;;;23.70;12.45;;;30.40;77.20;;;;;;5030796;28;20057;-64
2023/09/13 12:00:14;;;;;;;23.77;11.97;;;30.50;78.70;;;;;;5031705;28;20504;-64
2023/09/13 12:03:21;;;;;;;16.48;10.68;;;31.70;76.30;;;;;;5031544;28;20283;-64
2023/09/13 12:06:25;;;;;;;17.63;10.40;;;33.00;72.90;;;;;;5031573;28;20658;-63
2023/09/13 12:09:29;;;;;;;11.98;9.75;;;33.60;72.10;;;;;;5031450;28;20049;-64
2023/09/13 12:12:40;;;;;;;13.15;9.80;;;33.90;71.20;;;;;;5031333;28;20044;-64
2023/09/13 12:16:01;;;;;;;16.08;9.95;;;34.00;70.70;;;;;;5031005;28;20044;-64
2023/09/13 12:19:07;;;;;;;16.88;9.48;;;34.00;70.70;;;;;;5031445;28;20044;-64
2023/09/13 12:22:18;;;;;;;18.92;8.88;;;34.10;70.60;;;;;;5031182;28;20492;-65
2023/09/13 12:25:22;;;;;;;16.13;8.95;;;34.10;70.40;;;;;;5029768;28;20053;-64
2023/09/13 12:28:31;;;;;;;14.65;8.60;;;34.20;69.20;;;;;;5030623;28;20048;-64
2023/09/13 12:31:34;;;;;;;10.43;7.78;;;34.60;68.40;;;;;;5030702;28;20425;-66
2023/09/13 12:34:38;;;;;;;12.68;8.05;;;34.70;68.40;;;;;;5029943;28;20065;-66
2023/09/13 12:37:42;;;;;;;15.52;8.65;;;34.60;67.10;;;;;;5030633;28;20044;-67
2023/09/13 12:40:57;;;;;;;15.40;8.57;;;34.30;67.70;;;;;;5030771;28;20044;-66
2023/09/13 12:44:01;;;;;;;12.30;7.97;;;33.70;68.30;;;;;;5030796;28;20060;-66
2023/09/13 12:47:06;;;;;;;14.48;8.70;;;32.90;70.50;;;;;;5030236;28;20048;-66
2023/09/13 12:50:10;;;;;;;16.65;8.75;;;32.30;72.60;;;;;;5029523;28;20037;-66
2023/09/13 12:53:18;;;;;;;13.80;8.82;;;31.80;74.20;;;;;;5028098;28;20052;-65
2023/09/13 12:56:22;;;;;;;17.27;9.32;;;31.50;74.50;;;;;;5029093;28;20060;-66
2023/09/13 12:59:26;;;;;;;17.85;8.15;;;31.30;74.50;;;;;;5028468;28;20544;-65
2023/09/13 13:02:30;;;;;;;8.80;7.97;;;31.10;73.50;;;;;;5030494;28;20048;-66
2023/09/13 13:05:41;;;;;;;14.95;8.43;;;31.00;74.70;;;;;;5030382;28;20057;-65
2023/09/13 13:08:45;;;;;;;9.98;7.75;;;30.90;74.30;;;;;;5031742;28;20048;-65
2023/09/13 13:11:49;;;;;;;12.27;8.00;;;30.80;73.00;;;;;;5034298;28;20056;-65
2023/09/13 13:14:54;;;;;;;13.85;8.55;;;30.60;72.90;;;;;;5034968;28;20044;-65
2023/09/13 13:17:58;;;;;;;12.68;8.50;;;30.50;73.40;;;;;;5034294;28;20048;-65
2023/09/13 13:21:05;;;;;;;13.32;8.05;;;30.40;73.60;;;;;;5033617;28;20496;-65
2023/09/13 13:24:09;;;;;;;22.30;10.48;;;30.40;73.70;;;;;;5034468;28;20056;-65
2023/09/13 13:27:13;;;;;;;9.70;8.43;;;30.50;72.40;;;;;;5034276;28;20053;-65
2023/09/13 13:30:17;;;;;;;18.40;8.48;;;30.50;73.20;;;;;;5033682;28;20393;-65
2023/09/13 13:33:21;;;;;;;13.25;7.80;;;30.50;73.80;;;;;;5034103;28;20060;-65
2023/09/13 13:36:25;;;;;;;9.30;8.20;;;30.50;74.30;;;;;;5034427;28;20052;-65
2023/09/13 13:39:29;;;;;;;10.57;7.40;;;30.50;73.90;;;;;;5034334;28;20052;-65
2023/09/13 13:42:32;;;;;;;12.85;8.32;;;30.40;73.70;;;;;;5034080;28;20044;-65
2023/09/13 13:45:36;;;;;;;10.73;7.68;;;30.40;73.80;;;;;;5033845;28;20060;-66
2023/09/13 13:48:42;;;;;;;8.52;7.50;;;30.30;73.30;;;;;;5033890;28;20045;-66
2023/09/13 13:51:49;;;;;;;8.38;7.35;;;30.30;73.30;;;;;;5033134;28;20060;-65
2023/09/13 13:54:53;;;;;;;9.63;7.43;;;30.30;73.30;;;;;;5033899;28;20044;-65
2023/09/13 13:57:57;;;;;;;9.23;7.55;;;30.30;73.40;;;;;;5033514;28;20044;-65
2023/09/13 14:01:04;;;;;;;18.23;7.80;;;30.30;73.50;;;;;;5033762;28;20044;-65
2023/09/13 14:04:08;;;;;;;9.93;6.78;;;30.30;73.40;;;;;;5033677;28;20044;-65
2023/09/13 14:07:12;;;;;;;9.65;7.07;;;30.20;73.10;;;;;;5033838;28;20404;-66
2023/09/13 14:10:16;;;;;;;11.27;7.38;;;30.20;73.30;;;;;;5033572;28;20389;-65
2023/09/13 14:13:20;;;;;;;19.35;8.98;;;30.20;73.00;;;;;;5033374;28;20052;-65
2023/09/13 14:16:24;;;;;;;8.63;7.50;;;30.20;73.90;;;;;;5033380;28;20064;-66
2023/09/13 14:19:28;;;;;;;8.05;7.13;;;30.20;74.50;;;;;;5033519;28;20052;-65
2023/09/13 14:22:32;;;;;;;11.75;7.72;;;30.10;74.50;;;;;;5033405;28;20401;-65
2023/09/13 14:25:36;;;;;;;11.18;7.20;;;30.10;75.10;;;;;;5033268;28;20068;-64
2023/09/13 14:28:40;;;;;;;10.43;7.80;;;30.10;75.60;;;;;;5032831;28;20366;-65
2023/09/13 14:31:46;;;;;;;15.55;8.35;;;30.00;76.10;;;;;;5033208;28;20480;-64
2023/09/13 14:34:52;;;;;;;10.60;7.93;;;30.00;76.70;;;;;;5032605;28;20052;-66
2023/09/13 14:37:56;;;;;;;15.07;7.90;;;30.00;77.30;;;;;;5032824;28;20159;-67
2023/09/13 14:41:00;;;;;;;16.52;8.18;;;29.90;76.80;;;;;;5033190;28;20060;-66
2023/09/13 14:44:04;;;;;;;18.55;8.25;;;29.80;77.20;;;;;;5033064;28;20397;-65
2023/09/13 14:47:08;;;;;;;27.52;8.40;;;30.00;78.70;;;;;;5032385;28;20053;-64
2023/09/13 14:50:12;;;;;;;11.95;7.22;;;30.80;77.20;;;;;;5032621;28;20044;-63
2023/09/13 14:53:16;;;;;;;12.63;6.90;;;31.70;75.90;;;;;;5032714;28;20048;-64
2023/09/13 14:56:20;;;;;;;22.65;8.98;;;32.40;75.00;;;;;;5032205;28;20639;-65
2023/09/13 14:59:24;;;;;;;20.05;8.73;;;32.80;74.50;;;;;;5032567;28;20520;-66
2023/09/13 15:02:28;;;;;;;19.90;7.80;;;33.10;74.50;;;;;;5032255;28;20048;-66
2023/09/13 15:05:32;;;;;;;17.90;8.32;;;33.00;74.40;;;;;;5032380;28;20052;-65
2023/09/13 15:08:35;;;;;;;17.67;7.05;;;32.90;74.40;;;;;;5032813;28;20112;-65
2023/09/13 15:11:43;;;;;;;26.73;8.80;;;32.70;74.90;;;;;;5032652;28;20055;-65
2023/09/13 15:14:47;;;;;;;15.93;7.30;;;32.90;74.60;;;;;;5032504;28;20540;-65
2023/09/13 15:17:52;;;;;;;21.85;8.63;;;33.10;74.20;;;;;;5032391;28;20508;-64
2023/09/13 15:20:56;;;;;;;21.10;8.10;;;33.30;73.40;;;;;;5032345;28;20040;-65
2023/09/13 15:24:00;;;;;;;13.95;7.40;;;33.30;73.20;;;;;;5032227;28;20049;-66
2023/09/13 15:27:04;;;;;;;14.45;7.45;;;33.10;73.50;;;;;;5032268;28;20048;-65
2023/09/13 15:30:09;;;;;;;22.42;8.18;;;33.00;73.60;;;;;;5032027;28;20472;-66
2023/09/13 15:33:13;;;;;;;16.00;7.70;;;32.80;74.10;;;;;;5030855;28;20512;-66
2023/09/13 15:36:17;;;;;;;17.23;7.05;;;32.70;73.70;;;;;;5031458;28;20052;-66
2023/09/13 15:39:21;;;;;;;14.75;6.93;;;32.00;74.50;;;;;;5031745;28;20048;-66
2023/09/13 15:42:28;;;;;;;15.05;6.93;;;31.40;75.90;;;;;;5031787;28;20052;-68
2023/09/13 15:45:32;;;;;;;13.40;7.00;;;30.90;77.80;;;;;;5030643;28;20056;-66